createdAt,value
2023-01-30T00:01:30.555Z,11.00
2023-01-30T00:03:59.553Z,10.70
2023-01-30T00:06:28.866Z,11.40
2023-01-30T00:08:57.308Z,10.50
2023-01-30T00:11:26.545Z,10.90
2023-01-30T00:13:54.949Z,4.50
2023-01-30T00:16:23.507Z,11.50
2023-01-30T00:18:52.168Z,10.70
2023-01-30T00:21:20.630Z,10.60
2023-01-30T00:23:49.075Z,9.90
2023-01-30T00:26:17.555Z,10.40
2023-01-30T00:28:46.087Z,10.00
2023-01-30T00:31:14.534Z,10.30
2023-01-30T00:33:43.047Z,10.80
2023-01-30T00:36:11.671Z,10.60
2023-01-30T00:38:40.078Z,10.80
2023-01-30T00:41:11.034Z,7.00
2023-01-30T00:43:58.056Z,11.50
2023-01-30T00:46:51.333Z,12.20
2023-01-30T00:49:21.122Z,11.10
2023-01-30T00:51:50.431Z,11.00
2023-01-30T00:54:19.011Z,11.50
2023-01-30T00:56:47.485Z,11.30
2023-01-30T00:59:15.977Z,11.80
2023-01-30T01:01:44.791Z,11.30
2023-01-30T01:04:13.742Z,11.70
2023-01-30T01:06:42.507Z,11.30
2023-01-30T01:09:11.173Z,12.20
2023-01-30T01:11:39.652Z,12.10
2023-01-30T01:14:08.276Z,11.00
2023-01-30T01:16:37.210Z,11.20
2023-01-30T01:19:05.672Z,11.80
2023-01-30T01:21:34.135Z,11.60
2023-01-30T01:24:02.591Z,12.80
2023-01-30T01:26:31.199Z,6.40
2023-01-30T01:29:00.090Z,13.10
2023-01-30T01:31:28.677Z,14.20
2023-01-30T01:33:57.818Z,13.90
2023-01-30T01:36:53.340Z,13.70
2023-01-30T01:39:17.749Z,14.20
2023-01-30T01:41:46.368Z,13.70
2023-01-30T01:44:17.356Z,13.10
2023-01-30T01:46:58.851Z,14.30
2023-01-30T01:49:31.314Z,7.40
2023-01-30T01:52:09.792Z,12.70
2023-01-30T01:54:45.824Z,12.60
2023-01-30T01:57:30.619Z,13.30
2023-01-30T02:00:17.944Z,14.80
2023-01-30T02:02:59.184Z,12.50
2023-01-30T02:05:35.468Z,11.90
2023-01-30T02:08:09.299Z,10.90
2023-01-30T02:11:01.084Z,11.90
2023-01-30T02:13:29.948Z,12.00
2023-01-30T02:16:00.800Z,12.50
2023-01-30T02:18:31.481Z,12.00
2023-01-30T02:21:22.098Z,12.00
2023-01-30T02:24:01.962Z,12.50
2023-01-30T02:26:48.706Z,12.90
2023-01-30T02:29:29.272Z,12.80
2023-01-30T02:32:21.021Z,12.60
2023-01-30T02:35:10.799Z,11.70
2023-01-30T02:37:39.195Z,12.40
2023-01-30T02:40:49.773Z,12.20
2023-01-30T02:43:27.581Z,12.90
2023-01-30T02:46:25.255Z,12.40
2023-01-30T02:48:59.954Z,12.20
2023-01-30T02:51:31.992Z,12.70
2023-01-30T02:54:00.575Z,12.60
2023-01-30T02:56:29.148Z,5.90
2023-01-30T02:59:08.830Z,11.80
2023-01-30T03:02:00.160Z,12.10
2023-01-30T03:04:50.635Z,11.30
2023-01-30T03:07:28.561Z,12.20
2023-01-30T03:10:15.412Z,11.90
2023-01-30T03:13:11.972Z,11.30
2023-01-30T03:15:54.459Z,11.70
2023-01-30T03:18:23.590Z,11.10
2023-01-30T03:20:53.169Z,12.30
2023-01-30T03:23:21.600Z,11.70
2023-01-30T03:25:50.154Z,12.10
2023-01-30T03:28:21.608Z,12.90
2023-01-30T03:30:50.241Z,12.10
2023-01-30T03:33:18.698Z,5.20
2023-01-30T03:35:51.352Z,12.80
2023-01-30T03:38:20.024Z,12.50
2023-01-30T03:40:51.398Z,11.90
2023-01-30T03:43:20.300Z,12.70
2023-01-30T03:45:48.811Z,15.40
2023-01-30T03:48:17.514Z,13.80
2023-01-30T03:50:46.097Z,14.30
2023-01-30T03:53:15.189Z,13.60
2023-01-30T03:55:46.190Z,12.10
2023-01-30T03:58:14.850Z,12.80
2023-01-30T04:00:43.665Z,4.60
2023-01-30T04:03:12.256Z,12.20
2023-01-30T04:05:43.272Z,12.40
2023-01-30T04:08:11.748Z,14.60
2023-01-30T04:10:40.250Z,13.60
2023-01-30T04:13:08.652Z,13.40
2023-01-30T04:15:37.559Z,13.80
2023-01-30T04:18:30.979Z,14.00
2023-01-30T04:21:04.991Z,14.70
2023-01-30T04:23:37.303Z,14.10
2023-01-30T04:26:06.825Z,14.40
2023-01-30T04:28:37.681Z,14.00
2023-01-30T04:31:06.769Z,13.20
2023-01-30T04:33:52.200Z,13.70
2023-01-30T04:36:21.177Z,13.20
2023-01-30T04:38:50.980Z,6.90
2023-01-30T04:41:19.541Z,12.70
2023-01-30T04:43:48.019Z,6.00
2023-01-30T04:46:27.290Z,13.60
2023-01-30T04:48:55.757Z,12.90
2023-01-30T04:51:24.213Z,15.70
2023-01-30T04:53:52.775Z,15.10
2023-01-30T04:56:21.350Z,15.50
2023-01-30T04:58:50.690Z,14.70
2023-01-30T05:01:32.423Z,16.80
2023-01-30T05:04:01.982Z,15.60
2023-01-30T05:06:31.725Z,14.90
2023-01-30T05:09:00.546Z,16.80
2023-01-30T05:11:30.448Z,16.60
2023-01-30T05:13:59.316Z,8.90
2023-01-30T05:16:28.202Z,17.10
2023-01-30T05:18:56.721Z,15.90
2023-01-30T05:21:28.167Z,17.10
2023-01-30T05:23:57.333Z,17.90
2023-01-30T05:26:26.244Z,18.70
2023-01-30T05:28:57.100Z,18.10
2023-01-30T05:31:26.001Z,19.20
2023-01-30T05:33:54.783Z,18.60
2023-01-30T05:36:24.141Z,17.80
2023-01-30T05:38:52.843Z,19.60
2023-01-30T05:41:21.254Z,18.10
2023-01-30T05:43:51.148Z,16.10
2023-01-30T05:46:19.792Z,17.10
2023-01-30T05:48:49.008Z,18.50
2023-01-30T05:51:20.247Z,18.60
2023-01-30T05:53:49.106Z,17.40
2023-01-30T05:56:19.081Z,17.00
2023-01-30T05:58:55.735Z,17.10
2023-01-30T06:01:25.177Z,17.30
2023-01-30T06:03:54.301Z,17.10
2023-01-30T06:06:23.984Z,8.90
2023-01-30T06:08:56.699Z,15.50
2023-01-30T06:11:25.794Z,15.50
2023-01-30T06:13:54.344Z,15.20
2023-01-30T06:16:22.812Z,11.70
2023-01-30T06:18:51.266Z,13.40
2023-01-30T06:21:19.741Z,14.60
2023-01-30T06:23:48.536Z,7.10
2023-01-30T06:26:17.086Z,16.30
2023-01-30T06:28:45.603Z,18.50
2023-01-30T06:31:14.379Z,21.50
2023-01-30T06:33:44.218Z,22.80
2023-01-30T06:36:12.718Z,25.60
2023-01-30T06:38:41.234Z,26.50
2023-01-30T06:41:09.756Z,25.60
2023-01-30T06:43:38.223Z,22.50
2023-01-30T06:46:06.695Z,20.20
2023-01-30T06:48:35.318Z,21.70
2023-01-30T06:51:04.007Z,20.60
2023-01-30T06:53:32.495Z,21.50
2023-01-30T06:56:02.230Z,17.70
2023-01-30T06:58:30.974Z,15.40
2023-01-30T07:00:59.534Z,17.10
2023-01-30T07:03:28.052Z,16.00
2023-01-30T07:05:56.519Z,16.50
2023-01-30T07:08:24.966Z,17.20
2023-01-30T07:10:53.392Z,18.00
2023-01-30T07:13:21.886Z,17.60
2023-01-30T07:15:50.743Z,20.00
2023-01-30T07:18:19.424Z,18.40
2023-01-30T07:20:51.015Z,18.30
2023-01-30T07:23:19.562Z,18.50
2023-01-30T07:25:48.047Z,16.00
2023-01-30T07:28:16.574Z,14.20
2023-01-30T07:30:46.063Z,16.10
2023-01-30T07:33:14.606Z,14.90
2023-01-30T07:35:43.144Z,13.90
2023-01-30T07:38:11.579Z,13.80
2023-01-30T07:40:40.064Z,13.80
2023-01-30T07:43:12.462Z,13.10
2023-01-30T07:45:48.808Z,10.90
2023-01-30T07:48:19.843Z,10.00
2023-01-30T07:50:48.394Z,11.20
2023-01-30T07:53:18.954Z,10.90
2023-01-30T07:55:47.602Z,11.10
2023-01-30T07:58:17.053Z,10.00
2023-01-30T08:00:45.696Z,8.80
2023-01-30T08:03:16.630Z,8.70
2023-01-30T08:05:48.512Z,8.80
2023-01-30T08:08:17.182Z,7.90
2023-01-30T08:10:48.714Z,9.60
2023-01-30T08:13:17.237Z,8.00
2023-01-30T08:15:45.742Z,9.00
2023-01-30T08:18:14.300Z,9.00
2023-01-30T08:20:45.989Z,7.50
2023-01-30T08:23:14.492Z,7.90
2023-01-30T08:25:43.174Z,8.50
2023-01-30T08:28:11.642Z,10.10
2023-01-30T08:30:42.279Z,9.10
2023-01-30T08:33:11.451Z,10.00
2023-01-30T08:35:40.842Z,9.10
2023-01-30T08:38:09.932Z,9.00
2023-01-30T08:40:38.468Z,10.80
2023-01-30T08:43:07.014Z,9.90
2023-01-30T08:45:36.473Z,9.20
2023-01-30T08:48:07.251Z,9.80
2023-01-30T08:50:36.545Z,10.40
2023-01-30T08:53:10.295Z,10.70
2023-01-30T08:55:38.759Z,10.00
2023-01-30T08:58:07.236Z,10.80
2023-01-30T09:00:36.252Z,10.80
2023-01-30T09:03:07.715Z,10.50
2023-01-30T09:05:36.442Z,8.90
2023-01-30T09:08:05.111Z,9.70
2023-01-30T09:10:33.808Z,9.40
2023-01-30T09:13:02.464Z,11.50
2023-01-30T09:15:31.329Z,11.20
2023-01-30T09:17:59.745Z,10.10
2023-01-30T09:20:28.189Z,9.80
2023-01-30T09:22:56.671Z,10.20
2023-01-30T09:25:25.220Z,9.60
2023-01-30T09:27:53.846Z,9.50
2023-01-30T09:30:22.477Z,10.30
2023-01-30T09:32:50.985Z,9.10
2023-01-30T09:35:19.513Z,9.40
2023-01-30T09:37:52.607Z,8.90
2023-01-30T09:40:26.336Z,8.30
2023-01-30T09:43:11.628Z,8.70
2023-01-30T09:46:01.948Z,8.70
2023-01-30T09:48:38.918Z,8.40
2023-01-30T09:51:24.972Z,8.70
2023-01-30T09:53:56.348Z,9.10
2023-01-30T09:56:24.873Z,8.40
2023-01-30T09:59:02.585Z,9.50
2023-01-30T10:02:03.286Z,8.40
2023-01-30T10:04:41.983Z,8.70
2023-01-30T10:07:32.982Z,8.50
2023-01-30T10:10:11.090Z,8.70
2023-01-30T10:13:03.287Z,10.30
2023-01-30T10:16:00.606Z,9.10
2023-01-30T10:18:40.611Z,8.70
2023-01-30T10:21:24.753Z,8.10
2023-01-30T10:24:25.509Z,8.40
2023-01-30T10:26:55.083Z,8.60
2023-01-30T10:29:40.221Z,8.50
2023-01-30T10:32:29.080Z,9.60
2023-01-30T10:35:05.023Z,8.90
2023-01-30T10:37:47.774Z,8.90
2023-01-30T10:40:41.264Z,9.50
2023-01-30T10:43:09.687Z,13.80
2023-01-30T10:45:51.303Z,12.90
2023-01-30T10:48:45.462Z,12.40
2023-01-30T10:51:29.031Z,13.70
2023-01-30T10:54:09.458Z,12.50
2023-01-30T10:57:04.625Z,13.10
2023-01-30T10:59:55.519Z,13.40
2023-01-30T11:02:34.571Z,12.60
2023-01-30T11:05:13.430Z,11.90
2023-01-30T11:07:44.415Z,12.00
2023-01-30T11:10:32.053Z,11.40
2023-01-30T11:13:27.725Z,10.70
2023-01-30T11:16:00.964Z,11.40
2023-01-30T11:21:42.119Z,12.80
2023-01-30T11:24:24.909Z,12.30
2023-01-30T11:26:53.624Z,12.10
2023-01-30T11:29:32.827Z,12.20
2023-01-30T11:32:03.859Z,12.10
2023-01-30T11:34:32.974Z,12.00
2023-01-30T11:37:27.508Z,11.50
2023-01-30T11:39:56.838Z,12.00
2023-01-30T11:42:31.515Z,13.00
2023-01-30T11:45:16.202Z,12.00
2023-01-30T11:48:02.400Z,12.20
2023-01-30T11:50:44.564Z,12.00
2023-01-30T11:53:39.191Z,11.70
2023-01-30T11:56:36.978Z,11.40
2023-01-30T11:59:15.975Z,11.10
2023-01-30T12:01:45.067Z,11.40
2023-01-30T12:04:14.218Z,10.90
2023-01-30T12:06:43.905Z,11.80
2023-01-30T12:09:40.037Z,11.20
2023-01-30T12:12:34.397Z,11.20
2023-01-30T12:18:06.815Z,10.50
2023-01-30T12:20:54.317Z,10.70
2023-01-30T12:23:37.401Z,12.10
2023-01-30T12:26:25.197Z,11.70
2023-01-30T12:29:25.097Z,12.00
2023-01-30T12:32:19.290Z,11.60
2023-01-30T12:34:48.562Z,11.80
2023-01-30T12:37:29.523Z,12.30
2023-01-30T12:40:07.080Z,12.90
2023-01-30T12:42:48.165Z,12.90
2023-01-30T12:45:29.635Z,12.70
2023-01-30T12:48:26.199Z,12.00
2023-01-30T12:51:12.773Z,11.90
2023-01-30T12:54:24.125Z,11.60
2023-01-30T12:56:55.380Z,11.80
2023-01-30T12:59:36.442Z,11.50
2023-01-30T13:02:25.464Z,11.60
2023-01-30T13:05:21.503Z,12.70
2023-01-30T13:08:27.090Z,12.10
2023-01-30T13:11:31.949Z,12.10
2023-01-30T13:14:27.437Z,13.10
2023-01-30T13:17:26.320Z,13.10
2023-01-30T13:20:20.928Z,13.10
2023-01-30T13:23:16.107Z,12.20
2023-01-30T13:26:00.648Z,12.20
2023-01-30T13:28:36.329Z,13.10
2023-01-30T13:31:10.142Z,13.20
2023-01-30T13:33:43.699Z,14.40
2023-01-30T13:36:51.698Z,13.60
2023-01-30T13:40:05.375Z,14.10
2023-01-30T13:42:38.949Z,13.60
2023-01-30T13:45:15.342Z,13.00
2023-01-30T13:48:06.616Z,13.30
2023-01-30T13:50:59.489Z,13.70
2023-01-30T13:53:47.217Z,13.70
2023-01-30T13:56:40.902Z,14.90
2023-01-30T13:59:22.386Z,13.00
2023-01-30T14:02:00.502Z,15.70
2023-01-30T14:04:41.340Z,14.20
2023-01-30T14:07:16.370Z,14.50
2023-01-30T14:10:12.122Z,13.30
2023-01-30T14:12:46.611Z,12.40
2023-01-30T14:15:15.041Z,14.20
2023-01-30T14:18:05.569Z,13.40
2023-01-30T14:20:44.851Z,13.00
2023-01-30T14:23:32.175Z,14.40
2023-01-30T14:26:01.427Z,13.70
2023-01-30T14:28:29.832Z,13.50
2023-01-30T14:31:00.633Z,14.30
2023-01-30T14:33:33.516Z,13.80
2023-01-30T14:38:35.153Z,13.60
2023-01-30T14:41:03.430Z,13.80
2023-01-30T14:43:36.433Z,14.90
2023-01-30T14:46:20.412Z,14.10
2023-01-30T14:48:55.573Z,14.40
2023-01-30T14:51:29.578Z,14.90
2023-01-30T14:54:03.236Z,15.40
2023-01-30T14:56:46.342Z,15.20
2023-01-30T15:02:01.155Z,13.50
2023-01-30T15:04:43.440Z,13.50
2023-01-30T15:07:50.723Z,14.70
2023-01-30T15:11:01.779Z,14.30
2023-01-30T15:13:42.878Z,15.20
2023-01-30T15:16:48.426Z,15.50
2023-01-30T15:19:35.852Z,15.00
2023-01-30T15:22:27.117Z,15.10
2023-01-30T15:25:14.497Z,14.80
2023-01-30T15:28:11.456Z,15.50
2023-01-30T15:31:04.836Z,15.00
2023-01-30T15:33:33.416Z,14.10
2023-01-30T15:36:19.064Z,14.60
2023-01-30T15:38:57.223Z,14.20
2023-01-30T15:41:26.739Z,14.50
2023-01-30T15:44:26.497Z,15.10
2023-01-30T15:47:04.189Z,16.20
2023-01-30T15:49:57.381Z,20.50
2023-01-30T15:52:45.160Z,22.00
2023-01-30T15:55:36.040Z,21.80
2023-01-30T15:58:09.712Z,22.50
2023-01-30T16:00:45.211Z,20.90
2023-01-30T16:03:18.368Z,19.90
2023-01-30T16:05:48.925Z,19.50
2023-01-30T16:08:24.300Z,19.30
2023-01-30T16:10:53.416Z,19.10
2023-01-30T16:13:24.072Z,21.30
2023-01-30T16:16:16.353Z,22.10
2023-01-30T16:18:53.227Z,21.90
2023-01-30T16:21:35.736Z,23.00
2023-01-30T16:24:14.373Z,21.60
2023-01-30T16:26:46.527Z,22.10
2023-01-30T16:29:18.399Z,21.80
2023-01-30T16:31:49.343Z,20.90
2023-01-30T16:34:33.721Z,20.80
2023-01-30T16:37:07.887Z,19.40
2023-01-30T16:39:37.884Z,20.60
2023-01-30T16:42:39.038Z,18.90
2023-01-30T16:45:13.344Z,20.60
2023-01-30T16:47:42.067Z,22.00
2023-01-30T16:50:21.387Z,25.00
2023-01-30T16:52:55.273Z,21.20
2023-01-30T16:55:26.568Z,21.90
2023-01-30T16:57:58.631Z,25.90
2023-01-30T17:00:36.700Z,24.80
2023-01-30T17:03:29.972Z,23.40
2023-01-30T17:08:31.324Z,25.10
2023-01-30T17:11:04.250Z,24.10
2023-01-30T17:16:36.890Z,25.30
2023-01-30T17:19:05.413Z,24.90
2023-01-30T17:21:48.119Z,23.30
2023-01-30T17:24:20.029Z,22.30
2023-01-30T17:26:51.528Z,21.00
2023-01-30T17:29:41.406Z,20.80
2023-01-30T17:32:15.659Z,20.00
2023-01-30T17:34:44.309Z,19.90
2023-01-30T17:37:16.638Z,19.30
2023-01-30T17:39:45.110Z,20.50
2023-01-30T17:42:14.970Z,21.00
2023-01-30T17:44:43.578Z,19.60
2023-01-30T17:47:12.875Z,20.10
2023-01-30T17:49:41.361Z,18.60
2023-01-30T17:52:13.089Z,18.20
2023-01-30T17:54:41.589Z,19.80
2023-01-30T17:57:15.795Z,18.20
2023-01-30T17:59:44.288Z,20.50
2023-01-30T18:02:13.910Z,21.40
2023-01-30T18:04:42.366Z,20.20
2023-01-30T18:07:16.757Z,21.60
2023-01-30T18:09:45.341Z,25.50
2023-01-30T18:12:13.795Z,26.10
2023-01-30T18:14:42.274Z,28.30
2023-01-30T18:17:11.292Z,28.70
2023-01-30T18:19:39.810Z,26.70
2023-01-30T18:22:08.230Z,26.40
2023-01-30T18:24:36.760Z,24.10
2023-01-30T18:27:05.478Z,24.10
2023-01-30T18:29:34.400Z,24.40
2023-01-30T18:32:06.027Z,25.40
2023-01-30T18:34:35.416Z,24.80
2023-01-30T18:37:03.966Z,24.90
2023-01-30T18:39:32.377Z,25.60
2023-01-30T18:42:02.402Z,25.50
2023-01-30T18:44:30.938Z,26.00
2023-01-30T18:47:00.155Z,25.90
2023-01-30T18:49:28.671Z,26.00
2023-01-30T18:51:57.887Z,27.70
2023-01-30T18:54:26.333Z,28.10
2023-01-30T18:56:54.900Z,27.10
2023-01-30T18:59:25.106Z,23.80
2023-01-30T19:01:53.556Z,22.50
2023-01-30T19:04:22.026Z,23.90
2023-01-30T19:06:50.495Z,24.30
2023-01-30T19:09:19.419Z,24.00
2023-01-30T19:12:06.589Z,26.60
2023-01-30T19:14:35.106Z,29.00
2023-01-30T19:17:03.515Z,30.10
2023-01-30T19:19:32.474Z,30.00
2023-01-30T19:22:01.067Z,28.20
2023-01-30T19:24:29.486Z,26.70
2023-01-30T19:26:58.017Z,28.60
2023-01-30T19:29:26.431Z,28.40
2023-01-30T19:31:55.114Z,28.20
2023-01-30T19:34:23.747Z,29.70
2023-01-30T19:36:52.209Z,31.10
2023-01-30T19:39:21.549Z,30.10
2023-01-30T19:41:49.966Z,30.80
2023-01-30T19:44:18.437Z,30.60
2023-01-30T19:46:46.985Z,33.50
2023-01-30T19:49:16.043Z,34.70
2023-01-30T19:51:44.735Z,34.90
2023-01-30T19:54:13.491Z,34.20
2023-01-30T19:56:42.769Z,34.20
2023-01-30T19:59:13.198Z,34.00
2023-01-30T20:01:41.896Z,33.70
2023-01-30T20:04:10.423Z,32.60
2023-01-30T20:06:44.455Z,32.50
2023-01-30T20:09:13.093Z,33.70
2023-01-30T20:11:42.177Z,33.80
2023-01-30T20:14:11.304Z,35.20
2023-01-30T20:16:39.825Z,34.60
2023-01-30T20:19:16.786Z,33.40
2023-01-30T20:21:45.734Z,33.70
2023-01-30T20:24:15.567Z,30.70
2023-01-30T20:26:47.867Z,31.00
2023-01-30T20:31:46.329Z,34.80
2023-01-30T20:34:15.545Z,35.60
2023-01-30T20:36:44.090Z,33.40
2023-01-30T20:39:13.107Z,31.30
2023-01-30T20:41:41.723Z,32.10
2023-01-30T20:44:13.071Z,31.60
2023-01-30T20:46:44.105Z,30.50
2023-01-30T20:49:20.007Z,29.80
2023-01-30T20:51:51.189Z,32.00
2023-01-30T20:54:22.498Z,31.00
2023-01-30T20:56:53.615Z,30.90
2023-01-30T20:59:24.713Z,29.70
2023-01-30T21:01:54.094Z,27.10
2023-01-30T21:04:24.757Z,28.70
2023-01-30T21:06:53.509Z,29.60
2023-01-30T21:09:23.585Z,31.40
2023-01-30T21:11:53.460Z,34.70
2023-01-30T21:14:22.609Z,33.00
2023-01-30T21:16:51.221Z,33.50
2023-01-30T21:19:19.813Z,32.30
2023-01-30T21:21:51.492Z,32.10
2023-01-30T21:24:26.774Z,34.40
2023-01-30T21:26:55.848Z,33.70
2023-01-30T21:29:26.951Z,34.10
2023-01-30T21:31:57.214Z,34.90
2023-01-30T21:34:25.858Z,34.60
2023-01-30T21:37:12.973Z,32.90
2023-01-30T21:40:00.135Z,32.70
2023-01-30T21:42:47.257Z,33.50
2023-01-30T21:45:15.794Z,32.90
2023-01-30T21:47:44.282Z,32.40
2023-01-30T21:50:12.768Z,32.70
2023-01-30T21:52:41.279Z,33.60
2023-01-30T21:55:09.962Z,33.30
2023-01-30T21:57:38.968Z,32.30
2023-01-30T22:00:08.386Z,32.40
2023-01-30T22:02:36.831Z,30.60
2023-01-30T22:05:05.755Z,33.70
2023-01-30T22:07:34.231Z,33.00
2023-01-30T22:10:02.828Z,32.30
2023-01-30T22:12:32.707Z,32.50
2023-01-30T22:15:01.201Z,31.60
2023-01-30T22:17:29.717Z,31.90
2023-01-30T22:19:58.235Z,33.90
2023-01-30T22:22:26.944Z,32.60
2023-01-30T22:24:55.386Z,32.10
2023-01-30T22:27:23.846Z,29.20
2023-01-30T22:29:52.389Z,31.10
2023-01-30T22:32:20.950Z,32.40
2023-01-30T22:34:49.370Z,32.80
2023-01-30T22:37:17.861Z,34.50
2023-01-30T22:39:46.356Z,35.50
2023-01-30T22:42:15.066Z,35.70
2023-01-30T22:44:43.515Z,35.00
2023-01-30T22:47:11.927Z,33.80
2023-01-30T22:49:40.413Z,31.90
2023-01-30T22:52:08.957Z,32.10
2023-01-30T22:54:37.360Z,34.50
2023-01-30T22:57:05.832Z,34.20
2023-01-30T22:59:34.265Z,34.30
2023-01-30T23:02:03.488Z,33.10
2023-01-30T23:04:31.978Z,33.10
2023-01-30T23:07:00.370Z,35.40
2023-01-30T23:09:28.872Z,35.10
2023-01-30T23:12:16.954Z,37.30
2023-01-30T23:14:45.437Z,39.20
2023-01-30T23:17:32.676Z,37.20
2023-01-30T23:20:01.039Z,35.90
2023-01-30T23:22:29.487Z,35.80
2023-01-30T23:24:57.958Z,37.60
2023-01-30T23:27:26.366Z,37.40
2023-01-30T23:29:54.818Z,36.70
2023-01-30T23:32:23.945Z,37.50
2023-01-30T23:34:52.346Z,34.20
2023-01-30T23:37:40.703Z,34.50
2023-01-30T23:40:10.144Z,31.90
2023-01-30T23:42:38.828Z,32.80
2023-01-30T23:45:08.599Z,33.00
2023-01-30T23:47:36.978Z,34.80
2023-01-30T23:50:05.696Z,31.00
2023-01-30T23:52:34.105Z,29.40
2023-01-30T23:55:02.596Z,28.20
2023-01-30T23:57:31.012Z,27.10
2023-01-30T23:59:59.394Z,28.80
